Terminal Aerodrome Forecast
Issued by NWS

Home | Current Version | Previous Version | Text Only | Print | Product List | Glossary On
Versions: 1 2 3 4 5 6 7 8 9 10 11 12 13 14 15 16
000
FTUS46 KSGX 162332
TAFONT
TAF
KONT 162332Z 1700/1806 26010KT P6SM SKC
     FM170400 VRB05KT P6SM SKC
     FM171100 VRB05KT P6SM BKN012
     FM171500 VRB05KT P6SM SCT015
     FM172100 26011KT P6SM SKC
     FM180400 VRB05KT P6SM SKC=

USA.gov is the U.S. government's official web portal to all federal, state and local government web resources and services.